sensor_id;sensor_type;location;lat;lon;timestamp;pressure;altitude;pressure_sealevel;temperature
29423;BMP180;16399;51.686;8.684;2023-01-31T00:02:37;100450.00;;;4.50
29423;BMP180;16399;51.686;8.684;2023-01-31T00:05:40;100470.00;;;4.50
29423;BMP180;16399;51.686;8.684;2023-01-31T00:08:43;100477.00;;;4.50
29423;BMP180;16399;51.686;8.684;2023-01-31T00:11:45;100480.00;;;4.50
29423;BMP180;16399;51.686;8.684;2023-01-31T00:14:47;100484.00;;;4.50
29423;BMP180;16399;51.686;8.684;2023-01-31T00:17:50;100471.00;;;4.50
29423;BMP180;16399;51.686;8.684;2023-01-31T00:20:52;100466.00;;;4.50
29423;BMP180;16399;51.686;8.684;2023-01-31T00:23:55;100468.00;;;4.50
29423;BMP180;16399;51.686;8.684;2023-01-31T00:26:58;100480.00;;;4.50
29423;BMP180;16399;51.686;8.684;2023-01-31T00:30:00;100476.00;;;4.50
29423;BMP180;16399;51.686;8.684;2023-01-31T00:33:02;100471.00;;;4.40
29423;BMP180;16399;51.686;8.684;2023-01-31T00:36:08;100477.00;;;4.40
29423;BMP180;16399;51.686;8.684;2023-01-31T00:39:11;100481.00;;;4.40
29423;BMP180;16399;51.686;8.684;2023-01-31T00:42:13;100473.00;;;4.40
29423;BMP180;16399;51.686;8.684;2023-01-31T00:45:15;100469.00;;;4.40
29423;BMP180;16399;51.686;8.684;2023-01-31T00:48:18;100463.00;;;4.40
29423;BMP180;16399;51.686;8.684;2023-01-31T00:51:20;100471.00;;;4.40
29423;BMP180;16399;51.686;8.684;2023-01-31T00:54:23;100476.00;;;4.40
29423;BMP180;16399;51.686;8.684;2023-01-31T00:57:25;100484.00;;;4.40
29423;BMP180;16399;51.686;8.684;2023-01-31T01:00:27;100493.00;;;4.40
29423;BMP180;16399;51.686;8.684;2023-01-31T01:03:29;100482.00;;;4.40
29423;BMP180;16399;51.686;8.684;2023-01-31T01:06:32;100485.00;;;4.40
29423;BMP180;16399;51.686;8.684;2023-01-31T01:09:35;100486.00;;;4.40
29423;BMP180;16399;51.686;8.684;2023-01-31T01:12:37;100493.00;;;4.30
29423;BMP180;16399;51.686;8.684;2023-01-31T01:15:39;100481.00;;;4.30
29423;BMP180;16399;51.686;8.684;2023-01-31T01:18:42;100486.00;;;4.30
29423;BMP180;16399;51.686;8.684;2023-01-31T01:21:46;100472.00;;;4.30
29423;BMP180;16399;51.686;8.684;2023-01-31T01:24:48;100489.00;;;4.30
29423;BMP180;16399;51.686;8.684;2023-01-31T01:27:51;100490.00;;;4.30
29423;BMP180;16399;51.686;8.684;2023-01-31T01:30:53;100481.00;;;4.30
29423;BMP180;16399;51.686;8.684;2023-01-31T01:34:01;100487.00;;;4.30
29423;BMP180;16399;51.686;8.684;2023-01-31T01:37:03;100487.00;;;4.30
29423;BMP180;16399;51.686;8.684;2023-01-31T01:40:10;100492.00;;;4.20
29423;BMP180;16399;51.686;8.684;2023-01-31T01:43:13;100500.00;;;4.30
29423;BMP180;16399;51.686;8.684;2023-01-31T01:46:27;100503.00;;;4.30
29423;BMP180;16399;51.686;8.684;2023-01-31T01:49:34;100511.00;;;4.20
29423;BMP180;16399;51.686;8.684;2023-01-31T01:52:41;100504.00;;;4.20
29423;BMP180;16399;51.686;8.684;2023-01-31T01:55:54;100506.00;;;4.20
29423;BMP180;16399;51.686;8.684;2023-01-31T01:58:54;100503.00;;;4.20
29423;BMP180;16399;51.686;8.684;2023-01-31T02:01:56;100504.00;;;4.20
29423;BMP180;16399;51.686;8.684;2023-01-31T02:04:59;100508.00;;;4.20
29423;BMP180;16399;51.686;8.684;2023-01-31T02:08:01;100517.00;;;4.20
29423;BMP180;16399;51.686;8.684;2023-01-31T02:11:14;100514.00;;;4.20
29423;BMP180;16399;51.686;8.684;2023-01-31T02:14:16;100521.00;;;4.20
29423;BMP180;16399;51.686;8.684;2023-01-31T02:17:19;100520.00;;;4.20
29423;BMP180;16399;51.686;8.684;2023-01-31T02:24:30;100528.00;;;4.10
29423;BMP180;16399;51.686;8.684;2023-01-31T02:27:40;100527.00;;;4.10
29423;BMP180;16399;51.686;8.684;2023-01-31T02:31:00;100523.00;;;4.10
29423;BMP180;16399;51.686;8.684;2023-01-31T02:34:08;100521.00;;;4.00
29423;BMP180;16399;51.686;8.684;2023-01-31T02:44:28;100529.00;;;3.90
29423;BMP180;16399;51.686;8.684;2023-01-31T02:47:58;100526.00;;;3.90
29423;BMP180;16399;51.686;8.684;2023-01-31T02:51:13;100534.00;;;3.90
29423;BMP180;16399;51.686;8.684;2023-01-31T02:54:20;100525.00;;;3.80
29423;BMP180;16399;51.686;8.684;2023-01-31T02:57:23;100536.00;;;3.80
29423;BMP180;16399;51.686;8.684;2023-01-31T03:00:26;100537.00;;;3.80
29423;BMP180;16399;51.686;8.684;2023-01-31T03:03:32;100530.00;;;3.80
29423;BMP180;16399;51.686;8.684;2023-01-31T03:06:40;100521.00;;;3.80
29423;BMP180;16399;51.686;8.684;2023-01-31T03:09:48;100528.00;;;3.80
29423;BMP180;16399;51.686;8.684;2023-01-31T03:12:56;100526.00;;;3.80
29423;BMP180;16399;51.686;8.684;2023-01-31T03:16:01;100519.00;;;3.80
29423;BMP180;16399;51.686;8.684;2023-01-31T03:19:26;100517.00;;;3.80
29423;BMP180;16399;51.686;8.684;2023-01-31T03:22:41;100519.00;;;3.80
29423;BMP180;16399;51.686;8.684;2023-01-31T03:25:44;100517.00;;;3.70
29423;BMP180;16399;51.686;8.684;2023-01-31T03:28:49;100512.00;;;3.60
29423;BMP180;16399;51.686;8.684;2023-01-31T03:32:04;100502.00;;;3.60
29423;BMP180;16399;51.686;8.684;2023-01-31T03:35:07;100509.00;;;3.50
29423;BMP180;16399;51.686;8.684;2023-01-31T03:38:16;100490.00;;;3.50
29423;BMP180;16399;51.686;8.684;2023-01-31T03:41:23;100503.00;;;3.40
29423;BMP180;16399;51.686;8.684;2023-01-31T03:44:50;100493.00;;;3.50
29423;BMP180;16399;51.686;8.684;2023-01-31T03:47:49;100497.00;;;3.50
29423;BMP180;16399;51.686;8.684;2023-01-31T03:51:01;100502.00;;;3.50
29423;BMP180;16399;51.686;8.684;2023-01-31T03:54:08;100480.00;;;3.60
29423;BMP180;16399;51.686;8.684;2023-01-31T03:57:23;100484.00;;;3.60
29423;BMP180;16399;51.686;8.684;2023-01-31T04:00:26;100481.00;;;3.70
29423;BMP180;16399;51.686;8.684;2023-01-31T04:03:53;100475.00;;;3.70
29423;BMP180;16399;51.686;8.684;2023-01-31T04:06:55;100469.00;;;3.70
29423;BMP180;16399;51.686;8.684;2023-01-31T04:09:57;100465.00;;;3.70
29423;BMP180;16399;51.686;8.684;2023-01-31T04:13:00;100474.00;;;3.70
29423;BMP180;16399;51.686;8.684;2023-01-31T04:16:03;100465.00;;;3.70
29423;BMP180;16399;51.686;8.684;2023-01-31T04:19:05;100472.00;;;3.70
29423;BMP180;16399;51.686;8.684;2023-01-31T04:22:07;100477.00;;;3.70
29423;BMP180;16399;51.686;8.684;2023-01-31T04:25:10;100481.00;;;3.80
29423;BMP180;16399;51.686;8.684;2023-01-31T04:28:13;100483.00;;;3.80
29423;BMP180;16399;51.686;8.684;2023-01-31T04:31:15;100476.00;;;3.80
29423;BMP180;16399;51.686;8.684;2023-01-31T04:34:17;100466.00;;;3.90
29423;BMP180;16399;51.686;8.684;2023-01-31T04:37:20;100471.00;;;3.90
29423;BMP180;16399;51.686;8.684;2023-01-31T04:40:22;100464.00;;;4.00
29423;BMP180;16399;51.686;8.684;2023-01-31T04:43:24;100460.00;;;4.00
29423;BMP180;16399;51.686;8.684;2023-01-31T04:46:27;100452.00;;;4.10
29423;BMP180;16399;51.686;8.684;2023-01-31T04:49:29;100455.00;;;4.10
29423;BMP180;16399;51.686;8.684;2023-01-31T04:52:31;100458.00;;;4.20
29423;BMP180;16399;51.686;8.684;2023-01-31T04:55:34;100463.00;;;4.20
29423;BMP180;16399;51.686;8.684;2023-01-31T04:58:36;100450.00;;;4.20
29423;BMP180;16399;51.686;8.684;2023-01-31T05:01:38;100441.00;;;4.30
29423;BMP180;16399;51.686;8.684;2023-01-31T05:04:42;100451.00;;;4.30
29423;BMP180;16399;51.686;8.684;2023-01-31T05:07:44;100445.00;;;4.30
29423;BMP180;16399;51.686;8.684;2023-01-31T05:10:46;100442.00;;;4.30
29423;BMP180;16399;51.686;8.684;2023-01-31T05:13:49;100448.00;;;4.40
29423;BMP180;16399;51.686;8.684;2023-01-31T05:16:51;100446.00;;;4.40
29423;BMP180;16399;51.686;8.684;2023-01-31T05:19:54;100436.00;;;4.40
29423;BMP180;16399;51.686;8.684;2023-01-31T05:22:57;100430.00;;;4.40
29423;BMP180;16399;51.686;8.684;2023-01-31T05:25:59;100423.00;;;4.50
29423;BMP180;16399;51.686;8.684;2023-01-31T05:29:01;100415.00;;;4.50
29423;BMP180;16399;51.686;8.684;2023-01-31T05:32:05;100417.00;;;4.50
29423;BMP180;16399;51.686;8.684;2023-01-31T05:35:08;100412.00;;;4.50
29423;BMP180;16399;51.686;8.684;2023-01-31T05:38:11;100417.00;;;4.50
29423;BMP180;16399;51.686;8.684;2023-01-31T05:41:13;100399.00;;;4.50
29423;BMP180;16399;51.686;8.684;2023-01-31T05:44:16;100385.00;;;4.50
29423;BMP180;16399;51.686;8.684;2023-01-31T05:47:18;100398.00;;;4.50
29423;BMP180;16399;51.686;8.684;2023-01-31T05:50:20;100394.00;;;4.50
29423;BMP180;16399;51.686;8.684;2023-01-31T05:53:23;100393.00;;;4.50
29423;BMP180;16399;51.686;8.684;2023-01-31T05:56:26;100391.00;;;4.50
29423;BMP180;16399;51.686;8.684;2023-01-31T05:59:28;100385.00;;;4.50
29423;BMP180;16399;51.686;8.684;2023-01-31T06:02:32;100387.00;;;4.50
29423;BMP180;16399;51.686;8.684;2023-01-31T06:05:35;100377.00;;;4.60
29423;BMP180;16399;51.686;8.684;2023-01-31T06:08:37;100382.00;;;4.60
29423;BMP180;16399;51.686;8.684;2023-01-31T06:11:39;100377.00;;;4.60
29423;BMP180;16399;51.686;8.684;2023-01-31T06:14:41;100373.00;;;4.70
29423;BMP180;16399;51.686;8.684;2023-01-31T06:17:45;100389.00;;;4.70
29423;BMP180;16399;51.686;8.684;2023-01-31T06:20:48;100389.00;;;4.70
29423;BMP180;16399;51.686;8.684;2023-01-31T06:23:50;100386.00;;;4.70
29423;BMP180;16399;51.686;8.684;2023-01-31T06:26:52;100376.00;;;4.70
29423;BMP180;16399;51.686;8.684;2023-01-31T06:29:55;100383.00;;;4.70
29423;BMP180;16399;51.686;8.684;2023-01-31T06:33:00;100375.00;;;4.80
29423;BMP180;16399;51.686;8.684;2023-01-31T06:36:03;100380.00;;;4.80
29423;BMP180;16399;51.686;8.684;2023-01-31T06:39:05;100371.00;;;4.80
29423;BMP180;16399;51.686;8.684;2023-01-31T06:42:08;100373.00;;;4.80
29423;BMP180;16399;51.686;8.684;2023-01-31T06:45:10;100372.00;;;4.90
29423;BMP180;16399;51.686;8.684;2023-01-31T06:48:12;100368.00;;;4.90
29423;BMP180;16399;51.686;8.684;2023-01-31T06:51:15;100372.00;;;4.90
29423;BMP180;16399;51.686;8.684;2023-01-31T06:54:20;100363.00;;;4.90
29423;BMP180;16399;51.686;8.684;2023-01-31T06:57:23;100369.00;;;4.90
29423;BMP180;16399;51.686;8.684;2023-01-31T07:00:25;100371.00;;;5.00
29423;BMP180;16399;51.686;8.684;2023-01-31T07:03:27;100372.00;;;5.00
29423;BMP180;16399;51.686;8.684;2023-01-31T07:06:29;100380.00;;;5.00
29423;BMP180;16399;51.686;8.684;2023-01-31T07:09:32;100380.00;;;4.90
29423;BMP180;16399;51.686;8.684;2023-01-31T07:12:34;100377.00;;;5.00
29423;BMP180;16399;51.686;8.684;2023-01-31T07:15:36;100380.00;;;5.00
29423;BMP180;16399;51.686;8.684;2023-01-31T07:18:39;100367.00;;;5.00
29423;BMP180;16399;51.686;8.684;2023-01-31T07:21:41;100375.00;;;5.00
29423;BMP180;16399;51.686;8.684;2023-01-31T07:24:44;100381.00;;;5.00
29423;BMP180;16399;51.686;8.684;2023-01-31T07:27:47;100380.00;;;5.10
29423;BMP180;16399;51.686;8.684;2023-01-31T07:30:49;100380.00;;;5.10
29423;BMP180;16399;51.686;8.684;2023-01-31T07:33:52;100371.00;;;5.10
29423;BMP180;16399;51.686;8.684;2023-01-31T07:36:54;100367.00;;;5.10
29423;BMP180;16399;51.686;8.684;2023-01-31T07:39:56;100355.00;;;5.10
29423;BMP180;16399;51.686;8.684;2023-01-31T07:42:59;100347.00;;;5.20
29423;BMP180;16399;51.686;8.684;2023-01-31T07:46:04;100343.00;;;5.20
29423;BMP180;16399;51.686;8.684;2023-01-31T07:49:06;100341.00;;;5.20
29423;BMP180;16399;51.686;8.684;2023-01-31T07:52:09;100326.00;;;5.30
29423;BMP180;16399;51.686;8.684;2023-01-31T07:55:12;100319.00;;;5.30
29423;BMP180;16399;51.686;8.684;2023-01-31T07:58:15;100326.00;;;5.40
29423;BMP180;16399;51.686;8.684;2023-01-31T08:01:20;100317.00;;;5.40
29423;BMP180;16399;51.686;8.684;2023-01-31T08:04:40;100308.00;;;5.40
29423;BMP180;16399;51.686;8.684;2023-01-31T08:07:42;100318.00;;;5.50
29423;BMP180;16399;51.686;8.684;2023-01-31T08:10:45;100331.00;;;5.50
29423;BMP180;16399;51.686;8.684;2023-01-31T08:13:47;100319.00;;;5.50
29423;BMP180;16399;51.686;8.684;2023-01-31T08:16:50;100320.00;;;5.50
29423;BMP180;16399;51.686;8.684;2023-01-31T08:19:52;100315.00;;;5.60
29423;BMP180;16399;51.686;8.684;2023-01-31T08:22:55;100310.00;;;5.70
29423;BMP180;16399;51.686;8.684;2023-01-31T08:26:02;100300.00;;;5.80
29423;BMP180;16399;51.686;8.684;2023-01-31T08:29:05;100288.00;;;5.80
29423;BMP180;16399;51.686;8.684;2023-01-31T08:32:07;100297.00;;;5.80
29423;BMP180;16399;51.686;8.684;2023-01-31T08:35:09;100289.00;;;5.90
29423;BMP180;16399;51.686;8.684;2023-01-31T08:38:11;100297.00;;;6.00
29423;BMP180;16399;51.686;8.684;2023-01-31T08:41:14;100283.00;;;6.00
29423;BMP180;16399;51.686;8.684;2023-01-31T08:44:18;100273.00;;;6.00
29423;BMP180;16399;51.686;8.684;2023-01-31T08:47:20;100280.00;;;5.90
29423;BMP180;16399;51.686;8.684;2023-01-31T08:50:25;100272.00;;;5.90
29423;BMP180;16399;51.686;8.684;2023-01-31T08:53:28;100267.00;;;5.90
29423;BMP180;16399;51.686;8.684;2023-01-31T08:56:30;100262.00;;;6.00
29423;BMP180;16399;51.686;8.684;2023-01-31T08:59:33;100265.00;;;6.00
29423;BMP180;16399;51.686;8.684;2023-01-31T09:02:35;100261.00;;;6.10
29423;BMP180;16399;51.686;8.684;2023-01-31T09:05:37;100261.00;;;6.10
29423;BMP180;16399;51.686;8.684;2023-01-31T09:08:40;100260.00;;;6.10
29423;BMP180;16399;51.686;8.684;2023-01-31T09:11:42;100259.00;;;6.20
29423;BMP180;16399;51.686;8.684;2023-01-31T09:14:44;100258.00;;;6.10
29423;BMP180;16399;51.686;8.684;2023-01-31T09:17:46;100259.00;;;6.20
29423;BMP180;16399;51.686;8.684;2023-01-31T09:20:49;100247.00;;;6.10
29423;BMP180;16399;51.686;8.684;2023-01-31T09:23:56;100241.00;;;6.10
29423;BMP180;16399;51.686;8.684;2023-01-31T09:26:59;100250.00;;;6.10
29423;BMP180;16399;51.686;8.684;2023-01-31T09:30:01;100247.00;;;6.00
29423;BMP180;16399;51.686;8.684;2023-01-31T09:33:04;100236.00;;;5.90
29423;BMP180;16399;51.686;8.684;2023-01-31T09:36:09;100243.00;;;5.80
29423;BMP180;16399;51.686;8.684;2023-01-31T09:39:12;100243.00;;;5.60
29423;BMP180;16399;51.686;8.684;2023-01-31T09:42:18;100239.00;;;5.60
29423;BMP180;16399;51.686;8.684;2023-01-31T09:45:31;100241.00;;;5.50
29423;BMP180;16399;51.686;8.684;2023-01-31T09:48:36;100229.00;;;5.40
29423;BMP180;16399;51.686;8.684;2023-01-31T09:51:39;100233.00;;;5.30
29423;BMP180;16399;51.686;8.684;2023-01-31T09:54:42;100230.00;;;5.30
29423;BMP180;16399;51.686;8.684;2023-01-31T09:57:53;100228.00;;;5.30
29423;BMP180;16399;51.686;8.684;2023-01-31T10:04:43;100214.00;;;5.10
29423;BMP180;16399;51.686;8.684;2023-01-31T10:07:53;100223.00;;;5.10
29423;BMP180;16399;51.686;8.684;2023-01-31T10:10:55;100216.00;;;5.00
29423;BMP180;16399;51.686;8.684;2023-01-31T10:14:01;100214.00;;;5.00
29423;BMP180;16399;51.686;8.684;2023-01-31T10:17:12;100213.00;;;5.00
29423;BMP180;16399;51.686;8.684;2023-01-31T10:23:42;100218.00;;;5.10
29423;BMP180;16399;51.686;8.684;2023-01-31T10:26:45;100219.00;;;5.10
29423;BMP180;16399;51.686;8.684;2023-01-31T10:29:52;100223.00;;;5.20
29423;BMP180;16399;51.686;8.684;2023-01-31T10:33:04;100220.00;;;5.20
29423;BMP180;16399;51.686;8.684;2023-01-31T10:36:16;100209.00;;;5.10
29423;BMP180;16399;51.686;8.684;2023-01-31T10:39:17;100205.00;;;5.10
29423;BMP180;16399;51.686;8.684;2023-01-31T10:42:36;100194.00;;;5.10
29423;BMP180;16399;51.686;8.684;2023-01-31T10:45:39;100190.00;;;5.20
29423;BMP180;16399;51.686;8.684;2023-01-31T10:48:43;100191.00;;;5.20
29423;BMP180;16399;51.686;8.684;2023-01-31T10:52:20;100187.00;;;5.20
29423;BMP180;16399;51.686;8.684;2023-01-31T10:58:13;100172.00;;;5.20
29423;BMP180;16399;51.686;8.684;2023-01-31T11:01:17;100174.00;;;5.20
29423;BMP180;16399;51.686;8.684;2023-01-31T11:04:29;100153.00;;;5.20
29423;BMP180;16399;51.686;8.684;2023-01-31T11:07:31;100154.00;;;5.10
29423;BMP180;16399;51.686;8.684;2023-01-31T11:10:33;100138.00;;;5.10
29423;BMP180;16399;51.686;8.684;2023-01-31T11:13:38;100138.00;;;5.10
29423;BMP180;16399;51.686;8.684;2023-01-31T11:16:40;100134.00;;;5.10
29423;BMP180;16399;51.686;8.684;2023-01-31T11:19:53;100143.00;;;5.10
29423;BMP180;16399;51.686;8.684;2023-01-31T11:22:53;100129.00;;;5.10
29423;BMP180;16399;51.686;8.684;2023-01-31T11:25:56;100127.00;;;5.10
29423;BMP180;16399;51.686;8.684;2023-01-31T11:29:00;100122.00;;;5.10
29423;BMP180;16399;51.686;8.684;2023-01-31T11:32:05;100112.00;;;5.20
29423;BMP180;16399;51.686;8.684;2023-01-31T11:38:22;100108.00;;;5.20
29423;BMP180;16399;51.686;8.684;2023-01-31T11:41:27;100106.00;;;5.20
29423;BMP180;16399;51.686;8.684;2023-01-31T11:44:30;100114.00;;;5.30
29423;BMP180;16399;51.686;8.684;2023-01-31T11:47:45;100092.00;;;5.30
29423;BMP180;16399;51.686;8.684;2023-01-31T11:50:53;100081.00;;;5.30
29423;BMP180;16399;51.686;8.684;2023-01-31T11:53:55;100080.00;;;5.40
29423;BMP180;16399;51.686;8.684;2023-01-31T11:56:59;100085.00;;;5.40
29423;BMP180;16399;51.686;8.684;2023-01-31T12:00:15;100066.00;;;5.40
29423;BMP180;16399;51.686;8.684;2023-01-31T12:03:13;100089.00;;;5.40
29423;BMP180;16399;51.686;8.684;2023-01-31T12:06:33;100084.00;;;5.40
29423;BMP180;16399;51.686;8.684;2023-01-31T12:09:43;100069.00;;;5.40
29423;BMP180;16399;51.686;8.684;2023-01-31T12:12:50;100067.00;;;5.40
29423;BMP180;16399;51.686;8.684;2023-01-31T12:16:04;100049.00;;;5.40
29423;BMP180;16399;51.686;8.684;2023-01-31T12:22:59;100066.00;;;5.30
29423;BMP180;16399;51.686;8.684;2023-01-31T12:26:10;100059.00;;;5.20
29423;BMP180;16399;51.686;8.684;2023-01-31T12:29:21;100063.00;;;5.20
29423;BMP180;16399;51.686;8.684;2023-01-31T12:39:27;100019.00;;;5.20
29423;BMP180;16399;51.686;8.684;2023-01-31T12:42:47;100009.00;;;5.20
29423;BMP180;16399;51.686;8.684;2023-01-31T12:49:15;100000.00;;;5.30
29423;BMP180;16399;51.686;8.684;2023-01-31T12:55:42;99998.00;;;5.40
29423;BMP180;16399;51.686;8.684;2023-01-31T13:05:56;99990.00;;;5.60
29423;BMP180;16399;51.686;8.684;2023-01-31T13:09:03;99984.00;;;5.60
29423;BMP180;16399;51.686;8.684;2023-01-31T13:12:15;99986.00;;;5.70
29423;BMP180;16399;51.686;8.684;2023-01-31T13:15:39;99989.00;;;5.70
29423;BMP180;16399;51.686;8.684;2023-01-31T13:18:41;99993.00;;;5.70
29423;BMP180;16399;51.686;8.684;2023-01-31T13:21:46;99991.00;;;5.80
29423;BMP180;16399;51.686;8.684;2023-01-31T13:25:15;99988.00;;;5.80
29423;BMP180;16399;51.686;8.684;2023-01-31T13:28:27;100009.00;;;5.80
29423;BMP180;16399;51.686;8.684;2023-01-31T13:31:39;100017.00;;;5.70
29423;BMP180;16399;51.686;8.684;2023-01-31T13:34:58;100007.00;;;5.70
29423;BMP180;16399;51.686;8.684;2023-01-31T13:38:02;100026.00;;;5.60
29423;BMP180;16399;51.686;8.684;2023-01-31T13:41:11;100005.00;;;5.60
29423;BMP180;16399;51.686;8.684;2023-01-31T13:44:13;100026.00;;;5.60
29423;BMP180;16399;51.686;8.684;2023-01-31T13:47:23;100034.00;;;5.60
29423;BMP180;16399;51.686;8.684;2023-01-31T13:50:47;100023.00;;;5.50
29423;BMP180;16399;51.686;8.684;2023-01-31T13:53:55;100013.00;;;5.50
29423;BMP180;16399;51.686;8.684;2023-01-31T13:56:55;100009.00;;;5.50
29423;BMP180;16399;51.686;8.684;2023-01-31T14:00:18;100011.00;;;5.50
29423;BMP180;16399;51.686;8.684;2023-01-31T14:03:10;100008.00;;;5.50
29423;BMP180;16399;51.686;8.684;2023-01-31T14:06:09;100010.00;;;5.50
29423;BMP180;16399;51.686;8.684;2023-01-31T14:09:31;100007.00;;;5.50
29423;BMP180;16399;51.686;8.684;2023-01-31T14:12:36;99998.00;;;5.50
29423;BMP180;16399;51.686;8.684;2023-01-31T14:15:49;100006.00;;;5.50
29423;BMP180;16399;51.686;8.684;2023-01-31T14:18:51;100009.00;;;5.50
29423;BMP180;16399;51.686;8.684;2023-01-31T14:22:12;99983.00;;;5.50
29423;BMP180;16399;51.686;8.684;2023-01-31T14:25:02;99989.00;;;5.50
29423;BMP180;16399;51.686;8.684;2023-01-31T14:28:08;100003.00;;;5.50
29423;BMP180;16399;51.686;8.684;2023-01-31T14:31:12;100005.00;;;5.50
29423;BMP180;16399;51.686;8.684;2023-01-31T14:34:22;99992.00;;;5.50
29423;BMP180;16399;51.686;8.684;2023-01-31T14:37:44;100003.00;;;5.50
29423;BMP180;16399;51.686;8.684;2023-01-31T14:41:06;99978.00;;;5.50
29423;BMP180;16399;51.686;8.684;2023-01-31T14:51:38;99983.00;;;5.50
29423;BMP180;16399;51.686;8.684;2023-01-31T14:54:44;99983.00;;;5.50
29423;BMP180;16399;51.686;8.684;2023-01-31T14:57:45;99987.00;;;5.60
29423;BMP180;16399;51.686;8.684;2023-01-31T15:00:49;99988.00;;;5.60
29423;BMP180;16399;51.686;8.684;2023-01-31T15:03:53;100006.00;;;5.60
29423;BMP180;16399;51.686;8.684;2023-01-31T15:06:56;100000.00;;;5.60
29423;BMP180;16399;51.686;8.684;2023-01-31T15:09:58;100018.00;;;5.60
29423;BMP180;16399;51.686;8.684;2023-01-31T15:13:00;100013.00;;;5.70
29423;BMP180;16399;51.686;8.684;2023-01-31T15:16:30;100017.00;;;5.70
29423;BMP180;16399;51.686;8.684;2023-01-31T15:19:40;100017.00;;;5.70
29423;BMP180;16399;51.686;8.684;2023-01-31T15:22:40;100027.00;;;5.70
29423;BMP180;16399;51.686;8.684;2023-01-31T15:25:44;100037.00;;;5.70
29423;BMP180;16399;51.686;8.684;2023-01-31T15:28:48;100022.00;;;5.70
29423;BMP180;16399;51.686;8.684;2023-01-31T15:31:56;100025.00;;;5.70
29423;BMP180;16399;51.686;8.684;2023-01-31T15:35:05;100029.00;;;5.80
29423;BMP180;16399;51.686;8.684;2023-01-31T15:41:43;100035.00;;;5.80
29423;BMP180;16399;51.686;8.684;2023-01-31T15:44:46;100043.00;;;5.80
29423;BMP180;16399;51.686;8.684;2023-01-31T15:48:05;100050.00;;;5.90
29423;BMP180;16399;51.686;8.684;2023-01-31T15:51:05;100044.00;;;5.90
29423;BMP180;16399;51.686;8.684;2023-01-31T15:54:12;100041.00;;;5.90
29423;BMP180;16399;51.686;8.684;2023-01-31T15:57:14;100048.00;;;5.90
29423;BMP180;16399;51.686;8.684;2023-01-31T16:00:19;100029.00;;;6.00
29423;BMP180;16399;51.686;8.684;2023-01-31T16:03:27;100016.00;;;6.00
29423;BMP180;16399;51.686;8.684;2023-01-31T16:06:35;100007.00;;;6.00
29423;BMP180;16399;51.686;8.684;2023-01-31T16:09:39;100029.00;;;6.00
29423;BMP180;16399;51.686;8.684;2023-01-31T16:12:48;100027.00;;;6.00
29423;BMP180;16399;51.686;8.684;2023-01-31T16:15:47;100025.00;;;6.10
29423;BMP180;16399;51.686;8.684;2023-01-31T16:18:56;100034.00;;;6.10
29423;BMP180;16399;51.686;8.684;2023-01-31T16:21:58;100024.00;;;6.10
29423;BMP180;16399;51.686;8.684;2023-01-31T16:25:03;100027.00;;;6.10
29423;BMP180;16399;51.686;8.684;2023-01-31T16:28:08;100031.00;;;6.10
29423;BMP180;16399;51.686;8.684;2023-01-31T16:31:12;100029.00;;;6.10
29423;BMP180;16399;51.686;8.684;2023-01-31T16:34:22;100021.00;;;6.20
29423;BMP180;16399;51.686;8.684;2023-01-31T16:37:41;100025.00;;;6.20
29423;BMP180;16399;51.686;8.684;2023-01-31T16:40:48;100014.00;;;6.20
29423;BMP180;16399;51.686;8.684;2023-01-31T16:43:48;100005.00;;;6.20
29423;BMP180;16399;51.686;8.684;2023-01-31T16:46:53;100015.00;;;6.20
29423;BMP180;16399;51.686;8.684;2023-01-31T16:53:30;100033.00;;;6.20
29423;BMP180;16399;51.686;8.684;2023-01-31T16:56:29;100039.00;;;6.30
29423;BMP180;16399;51.686;8.684;2023-01-31T16:59:37;100036.00;;;6.30
29423;BMP180;16399;51.686;8.684;2023-01-31T17:02:41;100033.00;;;6.30
29423;BMP180;16399;51.686;8.684;2023-01-31T17:05:44;100046.00;;;6.30
29423;BMP180;16399;51.686;8.684;2023-01-31T17:08:47;100047.00;;;6.30
29423;BMP180;16399;51.686;8.684;2023-01-31T17:11:49;100049.00;;;6.40
29423;BMP180;16399;51.686;8.684;2023-01-31T17:14:54;100052.00;;;6.40
29423;BMP180;16399;51.686;8.684;2023-01-31T17:17:59;100062.00;;;6.40
29423;BMP180;16399;51.686;8.684;2023-01-31T17:21:03;100073.00;;;6.40
29423;BMP180;16399;51.686;8.684;2023-01-31T17:24:09;100051.00;;;6.40
29423;BMP180;16399;51.686;8.684;2023-01-31T17:27:14;100050.00;;;6.40
29423;BMP180;16399;51.686;8.684;2023-01-31T17:30:18;100044.00;;;6.40
29423;BMP180;16399;51.686;8.684;2023-01-31T17:33:21;100054.00;;;6.40
29423;BMP180;16399;51.686;8.684;2023-01-31T17:36:23;100039.00;;;6.40
29423;BMP180;16399;51.686;8.684;2023-01-31T17:39:25;100039.00;;;6.40
29423;BMP180;16399;51.686;8.684;2023-01-31T17:42:28;100046.00;;;6.40
29423;BMP180;16399;51.686;8.684;2023-01-31T17:45:30;100050.00;;;6.50
29423;BMP180;16399;51.686;8.684;2023-01-31T17:48:33;100053.00;;;6.40
29423;BMP180;16399;51.686;8.684;2023-01-31T17:51:35;100055.00;;;6.50
29423;BMP180;16399;51.686;8.684;2023-01-31T17:54:38;100043.00;;;6.40
29423;BMP180;16399;51.686;8.684;2023-01-31T17:57:40;100049.00;;;6.40
29423;BMP180;16399;51.686;8.684;2023-01-31T18:00:43;100052.00;;;6.30
29423;BMP180;16399;51.686;8.684;2023-01-31T18:03:46;100055.00;;;6.40
29423;BMP180;16399;51.686;8.684;2023-01-31T18:06:49;100047.00;;;6.40
29423;BMP180;16399;51.686;8.684;2023-01-31T18:09:51;100062.00;;;6.40
29423;BMP180;16399;51.686;8.684;2023-01-31T18:12:53;100063.00;;;6.40
29423;BMP180;16399;51.686;8.684;2023-01-31T18:19:10;100066.00;;;6.40
29423;BMP180;16399;51.686;8.684;2023-01-31T18:22:12;100058.00;;;6.40
29423;BMP180;16399;51.686;8.684;2023-01-31T18:25:14;100060.00;;;6.40
29423;BMP180;16399;51.686;8.684;2023-01-31T18:28:17;100052.00;;;6.50
29423;BMP180;16399;51.686;8.684;2023-01-31T18:31:19;100069.00;;;6.50
29423;BMP180;16399;51.686;8.684;2023-01-31T18:34:22;100054.00;;;6.50
29423;BMP180;16399;51.686;8.684;2023-01-31T18:37:24;100069.00;;;6.50
29423;BMP180;16399;51.686;8.684;2023-01-31T18:40:27;100067.00;;;6.50
29423;BMP180;16399;51.686;8.684;2023-01-31T18:43:29;100073.00;;;6.40
29423;BMP180;16399;51.686;8.684;2023-01-31T18:46:31;100069.00;;;6.40
29423;BMP180;16399;51.686;8.684;2023-01-31T18:49:34;100061.00;;;6.40
29423;BMP180;16399;51.686;8.684;2023-01-31T18:52:37;100052.00;;;6.30
29423;BMP180;16399;51.686;8.684;2023-01-31T18:55:41;100065.00;;;6.30